sensor_id;sensor_type;location;lat;lon;timestamp;pressure;altitude;pressure_sealevel;temperature;humidity
71059;BME280;70265;47.576;19.270;2023-05-31T00:00:41;99119.03;;;15.11;100.00
71059;BME280;70265;47.576;19.270;2023-05-31T00:01:42;99118.22;;;15.10;100.00
71059;BME280;70265;47.576;19.270;2023-05-31T00:02:48;99117.06;;;15.13;100.00
71059;BME280;70265;47.576;19.270;2023-05-31T00:03:49;99119.03;;;15.11;100.00
71059;BME280;70265;47.576;19.270;2023-05-31T00:04:53;99121.31;;;15.14;100.00
71059;BME280;70265;47.576;19.270;2023-05-31T00:05:54;99122.34;;;15.13;100.00
71059;BME280;70265;47.576;19.270;2023-05-31T00:06:58;99127.63;;;15.13;100.00
71059;BME280;70265;47.576;19.270;2023-05-31T00:07:59;99128.59;;;15.12;100.00
71059;BME280;70265;47.576;19.270;2023-05-31T00:09:03;99126.16;;;15.10;100.00
71059;BME280;70265;47.576;19.270;2023-05-31T00:10:09;99119.03;;;15.11;100.00
71059;BME280;70265;47.576;19.270;2023-05-31T00:11:16;99131.25;;;15.12;100.00
71059;BME280;70265;47.576;19.270;2023-05-31T00:12:17;99129.59;;;15.11;100.00
71059;BME280;70265;47.576;19.270;2023-05-31T00:13:21;99126.47;;;15.07;100.00
71059;BME280;70265;47.576;19.270;2023-05-31T00:14:25;99128.31;;;15.07;100.00
71059;BME280;70265;47.576;19.270;2023-05-31T00:15:29;99132.44;;;15.09;99.69
71059;BME280;70265;47.576;19.270;2023-05-31T00:16:31;99138.53;;;15.10;100.00
71059;BME280;70265;47.576;19.270;2023-05-31T00:17:34;99129.94;;;15.08;100.00
71059;BME280;70265;47.576;19.270;2023-05-31T00:18:35;99132.31;;;15.03;99.53
71059;BME280;70265;47.576;19.270;2023-05-31T00:19:39;99133.94;;;15.04;99.50
71059;BME280;70265;47.576;19.270;2023-05-31T00:20:40;99128.31;;;15.07;96.69
71059;BME280;70265;47.576;19.270;2023-05-31T00:21:44;99131.75;;;15.07;97.70
71059;BME280;70265;47.576;19.270;2023-05-31T00:22:48;99129.31;;;15.06;98.77
71059;BME280;70265;47.576;19.270;2023-05-31T00:23:49;99131.97;;;15.06;98.21
71059;BME280;70265;47.576;19.270;2023-05-31T00:24:53;99132.94;;;15.05;99.10
71059;BME280;70265;47.576;19.270;2023-05-31T00:25:55;99127.84;;;15.03;97.28
71059;BME280;70265;47.576;19.270;2023-05-31T00:26:59;99130.31;;;15.05;98.75
71059;BME280;70265;47.576;19.270;2023-05-31T00:28:01;99132.31;;;15.03;98.88
71059;BME280;70265;47.576;19.270;2023-05-31T00:29:05;99125.72;;;14.99;98.80
71059;BME280;70265;47.576;19.270;2023-05-31T00:30:11;99127.38;;;15.00;96.22
71059;BME280;70265;47.576;19.270;2023-05-31T00:31:15;99126.31;;;15.09;95.33
71059;BME280;70265;47.576;19.270;2023-05-31T00:32:16;99127.66;;;15.05;96.83
71059;BME280;70265;47.576;19.270;2023-05-31T00:33:19;99127.03;;;15.03;96.94
71059;BME280;70265;47.576;19.270;2023-05-31T00:34:20;99130.81;;;15.00;96.76
71059;BME280;70265;47.576;19.270;2023-05-31T00:35:24;99128.53;;;14.97;96.65
71059;BME280;70265;47.576;19.270;2023-05-31T00:36:25;99125.09;;;14.97;94.65
71059;BME280;70265;47.576;19.270;2023-05-31T00:37:29;99119.44;;;15.00;96.01
71059;BME280;70265;47.576;19.270;2023-05-31T00:38:33;99123.72;;;15.01;96.38
71059;BME280;70265;47.576;19.270;2023-05-31T00:39:37;99119.44;;;15.00;95.87
71059;BME280;70265;47.576;19.270;2023-05-31T00:40:38;99124.19;;;15.04;94.70
71059;BME280;70265;47.576;19.270;2023-05-31T00:41:41;99124.19;;;15.04;94.93
71059;BME280;70265;47.576;19.270;2023-05-31T00:42:43;99122.38;;;15.05;94.43
71059;BME280;70265;47.576;19.270;2023-05-31T00:43:46;99127.66;;;15.05;94.43
71059;BME280;70265;47.576;19.270;2023-05-31T00:44:48;99120.91;;;15.02;95.09
71059;BME280;70265;47.576;19.270;2023-05-31T00:45:55;99119.59;;;14.98;95.35
71059;BME280;70265;47.576;19.270;2023-05-31T00:46:57;99118.78;;;14.98;94.62
71059;BME280;70265;47.576;19.270;2023-05-31T00:48:01;99119.59;;;14.98;95.21
71059;BME280;70265;47.576;19.270;2023-05-31T00:49:03;99112.50;;;14.99;95.34
71059;BME280;70265;47.576;19.270;2023-05-31T00:50:15;99117.97;;;14.97;93.68
71059;BME280;70265;47.576;19.270;2023-05-31T00:51:16;99117.78;;;14.99;95.64
71059;BME280;70265;47.576;19.270;2023-05-31T00:52:21;99121.44;;;14.98;94.94
71059;BME280;70265;47.576;19.270;2023-05-31T00:53:25;99120.44;;;14.99;94.15
71059;BME280;70265;47.576;19.270;2023-05-31T00:54:26;99117.16;;;14.97;95.32
71059;BME280;70265;47.576;19.270;2023-05-31T00:55:31;99116.50;;;14.95;94.46
71059;BME280;70265;47.576;19.270;2023-05-31T00:56:35;99121.97;;;14.93;95.01
71059;BME280;70265;47.576;19.270;2023-05-31T00:57:37;99121.50;;;14.90;95.75
71059;BME280;70265;47.576;19.270;2023-05-31T00:58:41;99122.47;;;14.89;96.06
71059;BME280;70265;47.576;19.270;2023-05-31T00:59:42;99117.19;;;14.89;95.21
71059;BME280;70265;47.576;19.270;2023-05-31T01:00:46;99118.84;;;14.90;95.71
71059;BME280;70265;47.576;19.270;2023-05-31T01:01:50;99122.63;;;14.87;95.60
71059;BME280;70265;47.576;19.270;2023-05-31T01:02:55;99125.47;;;14.86;95.95
71059;BME280;70265;47.576;19.270;2023-05-31T01:03:56;99115.72;;;14.86;96.43
71059;BME280;70265;47.576;19.270;2023-05-31T01:05:00;99113.25;;;14.85;94.53
71059;BME280;70265;47.576;19.270;2023-05-31T01:06:02;99109.63;;;14.86;96.04
71059;BME280;70265;47.576;19.270;2023-05-31T01:07:07;99124.78;;;14.84;97.06
71059;BME280;70265;47.576;19.270;2023-05-31T01:08:08;99125.00;;;14.82;96.34
71059;BME280;70265;47.576;19.270;2023-05-31T01:09:15;99123.81;;;14.85;96.91
71059;BME280;70265;47.576;19.270;2023-05-31T01:10:16;99123.19;;;14.83;97.30
71059;BME280;70265;47.576;19.270;2023-05-31T01:11:26;99120.88;;;14.80;96.65
71059;BME280;70265;47.576;19.270;2023-05-31T01:12:38;99124.31;;;14.80;97.24
71059;BME280;70265;47.576;19.270;2023-05-31T01:13:52;99118.06;;;14.81;98.17
71059;BME280;70265;47.576;19.270;2023-05-31T01:15:06;99121.88;;;14.78;97.38
71059;BME280;70265;47.576;19.270;2023-05-31T01:16:15;99114.28;;;14.75;96.42
71059;BME280;70265;47.576;19.270;2023-05-31T01:17:25;99116.94;;;14.75;97.57
71059;BME280;70265;47.576;19.270;2023-05-31T01:18:37;99119.56;;;14.75;98.25
71059;BME280;70265;47.576;19.270;2023-05-31T01:19:47;99122.22;;;14.75;97.04
71059;BME280;70265;47.576;19.270;2023-05-31T01:20:52;99123.41;;;14.73;97.01
71059;BME280;70265;47.576;19.270;2023-05-31T01:22:02;99120.91;;;14.71;97.31
71059;BME280;70265;47.576;19.270;2023-05-31T01:23:41;99125.38;;;14.71;98.03
71059;BME280;70265;47.576;19.270;2023-05-31T01:25:01;99120.59;;;14.66;96.97
71059;BME280;70265;47.576;19.270;2023-05-31T01:26:29;99121.47;;;14.59;97.57
71059;BME280;70265;47.576;19.270;2023-05-31T01:27:33;99117.66;;;14.61;97.75
71059;BME280;70265;47.576;19.270;2023-05-31T01:28:36;99123.44;;;14.57;97.43
71059;BME280;70265;47.576;19.270;2023-05-31T01:29:41;99128.91;;;14.55;97.56
71059;BME280;70265;47.576;19.270;2023-05-31T01:30:46;99126.44;;;14.54;96.16
71059;BME280;70265;47.576;19.270;2023-05-31T01:31:52;99117.88;;;14.52;97.32
71059;BME280;70265;47.576;19.270;2023-05-31T01:32:59;99131.41;;;14.49;97.49
71059;BME280;70265;47.576;19.270;2023-05-31T01:34:03;99119.34;;;14.46;96.54
71059;BME280;70265;47.576;19.270;2023-05-31T01:35:05;99118.56;;;14.46;96.25
71059;BME280;70265;47.576;19.270;2023-05-31T01:36:10;99126.63;;;14.44;97.42
71059;BME280;70265;47.576;19.270;2023-05-31T01:37:11;99117.72;;;14.45;96.65
71059;BME280;70265;47.576;19.270;2023-05-31T01:38:15;99118.22;;;14.41;96.39
71059;BME280;70265;47.576;19.270;2023-05-31T01:39:16;99122.53;;;14.42;97.15
71059;BME280;70265;47.576;19.270;2023-05-31T01:40:21;99125.31;;;14.40;96.71
71059;BME280;70265;47.576;19.270;2023-05-31T01:41:26;99123.50;;;14.41;97.09
71059;BME280;70265;47.576;19.270;2023-05-31T01:42:32;99122.53;;;14.42;97.29
71059;BME280;70265;47.576;19.270;2023-05-31T01:43:35;99117.25;;;14.42;96.57
71059;BME280;70265;47.576;19.270;2023-05-31T01:44:41;99119.06;;;14.41;96.87
71059;BME280;70265;47.576;19.270;2023-05-31T01:45:45;99121.50;;;14.43;96.93
71059;BME280;70265;47.576;19.270;2023-05-31T01:46:49;99127.81;;;14.42;96.82
71059;BME280;70265;47.576;19.270;2023-05-31T01:47:54;99122.69;;;14.40;97.81
71059;BME280;70265;47.576;19.270;2023-05-31T01:48:59;99132.59;;;14.38;97.07
71059;BME280;70265;47.576;19.270;2023-05-31T01:50:02;99121.38;;;14.36;96.60
71059;BME280;70265;47.576;19.270;2023-05-31T01:51:09;99121.22;;;14.38;97.19
71059;BME280;70265;47.576;19.270;2023-05-31T01:52:14;99119.06;;;14.41;97.42
71059;BME280;70265;47.576;19.270;2023-05-31T01:53:26;99127.13;;;14.40;95.85
71059;BME280;70265;47.576;19.270;2023-05-31T01:54:27;99128.78;;;14.41;96.39
71059;BME280;70265;47.576;19.270;2023-05-31T01:55:32;99126.97;;;14.41;97.01
71059;BME280;70265;47.576;19.270;2023-05-31T01:56:36;99122.19;;;14.37;96.02
71059;BME280;70265;47.576;19.270;2023-05-31T01:57:43;99125.31;;;14.40;96.15
71059;BME280;70265;47.576;19.270;2023-05-31T01:58:45;99123.16;;;14.44;96.06
71059;BME280;70265;47.576;19.270;2023-05-31T01:59:50;99122.66;;;14.48;95.54
71059;BME280;70265;47.576;19.270;2023-05-31T02:00:52;99118.69;;;14.52;94.75
71059;BME280;70265;47.576;19.270;2023-05-31T02:01:57;99119.69;;;14.51;95.87
71059;BME280;70265;47.576;19.270;2023-05-31T02:02:58;99112.09;;;14.48;95.91
71059;BME280;70265;47.576;19.270;2023-05-31T02:04:03;99116.84;;;14.53;95.17
71059;BME280;70265;47.576;19.270;2023-05-31T02:05:06;99117.53;;;14.55;95.13
71059;BME280;70265;47.576;19.270;2023-05-31T02:06:11;99118.69;;;14.52;94.72
71059;BME280;70265;47.576;19.270;2023-05-31T02:07:13;99116.34;;;14.57;92.84
71059;BME280;70265;47.576;19.270;2023-05-31T02:08:17;99125.94;;;14.58;94.80
71059;BME280;70265;47.576;19.270;2023-05-31T02:09:19;99122.47;;;14.58;94.83
71059;BME280;70265;47.576;19.270;2023-05-31T02:10:23;99126.75;;;14.59;93.79
71059;BME280;70265;47.576;19.270;2023-05-31T02:11:25;99133.50;;;14.61;94.33
71059;BME280;70265;47.576;19.270;2023-05-31T02:12:31;99128.22;;;14.61;93.44
71059;BME280;70265;47.576;19.270;2023-05-31T02:13:33;99126.22;;;14.63;93.05
71059;BME280;70265;47.576;19.270;2023-05-31T02:14:37;99131.16;;;14.66;92.13
71059;BME280;70265;47.576;19.270;2023-05-31T02:15:41;99129.53;;;14.65;93.17
71059;BME280;70265;47.576;19.270;2023-05-31T02:16:42;99129.53;;;14.65;91.53
71059;BME280;70265;47.576;19.270;2023-05-31T02:17:46;99135.28;;;14.69;92.73
71059;BME280;70265;47.576;19.270;2023-05-31T02:18:51;99136.13;;;14.69;92.45
71059;BME280;70265;47.576;19.270;2023-05-31T02:19:56;99133.16;;;14.64;92.85
71059;BME280;70265;47.576;19.270;2023-05-31T02:20:57;99133.50;;;14.61;93.34
71059;BME280;70265;47.576;19.270;2023-05-31T02:22:01;99134.66;;;14.59;92.69
71059;BME280;70265;47.576;19.270;2023-05-31T02:23:02;99135.94;;;14.63;92.19
71059;BME280;70265;47.576;19.270;2023-05-31T02:24:06;99135.78;;;14.64;92.48
71059;BME280;70265;47.576;19.270;2023-05-31T02:25:08;99137.59;;;14.64;92.91
71059;BME280;70265;47.576;19.270;2023-05-31T02:26:13;99138.44;;;14.64;91.99
71059;BME280;70265;47.576;19.270;2023-05-31T02:27:14;99132.50;;;14.62;91.71
71059;BME280;70265;47.576;19.270;2023-05-31T02:28:20;99137.78;;;14.62;91.62
71059;BME280;70265;47.576;19.270;2023-05-31T02:29:22;99138.13;;;14.59;92.26
71059;BME280;70265;47.576;19.270;2023-05-31T02:30:26;99135.81;;;14.56;94.06
71059;BME280;70265;47.576;19.270;2023-05-31T02:31:28;62501.59;;;-141.66;100.00
71059;BME280;70265;47.576;19.270;2023-05-31T02:32:32;62501.59;;;-141.66;100.00
71059;BME280;70265;47.576;19.270;2023-05-31T02:33:36;62501.59;;;-141.66;100.00
71059;BME280;70265;47.576;19.270;2023-05-31T02:34:39;62501.59;;;-141.66;100.00
71059;BME280;70265;47.576;19.270;2023-05-31T02:35:40;62501.59;;;-141.66;100.00
71059;BME280;70265;47.576;19.270;2023-05-31T02:36:44;62501.59;;;-141.66;100.00
71059;BME280;70265;47.576;19.270;2023-05-31T02:37:46;62501.59;;;-141.66;100.00
71059;BME280;70265;47.576;19.270;2023-05-31T02:38:50;62501.59;;;-141.66;100.00
71059;BME280;70265;47.576;19.270;2023-05-31T02:39:51;62501.59;;;-141.66;100.00
71059;BME280;70265;47.576;19.270;2023-05-31T02:40:55;62501.59;;;-141.66;100.00
71059;BME280;70265;47.576;19.270;2023-05-31T02:41:56;62501.59;;;-141.66;100.00
71059;BME280;70265;47.576;19.270;2023-05-31T02:42:59;62501.59;;;-141.66;100.00
71059;BME280;70265;47.576;19.270;2023-05-31T02:44:03;62501.59;;;-141.66;100.00
71059;BME280;70265;47.576;19.270;2023-05-31T02:45:08;62501.59;;;-141.66;100.00
71059;BME280;70265;47.576;19.270;2023-05-31T02:46:10;62501.59;;;-141.66;100.00
71059;BME280;70265;47.576;19.270;2023-05-31T02:47:14;62501.59;;;-141.66;100.00
71059;BME280;70265;47.576;19.270;2023-05-31T02:48:26;62501.59;;;-141.66;100.00
71059;BME280;70265;47.576;19.270;2023-05-31T02:49:30;62501.59;;;-141.66;100.00
71059;BME280;70265;47.576;19.270;2023-05-31T02:50:31;62501.59;;;-141.66;100.00
71059;BME280;70265;47.576;19.270;2023-05-31T02:51:35;99142.13;;;14.47;91.97
71059;BME280;70265;47.576;19.270;2023-05-31T02:52:36;99147.25;;;14.49;92.14
71059;BME280;70265;47.576;19.270;2023-05-31T02:53:40;99144.75;;;14.47;91.49
71059;BME280;70265;47.576;19.270;2023-05-31T02:54:41;99141.97;;;14.49;90.80
71059;BME280;70265;47.576;19.270;2023-05-31T02:55:45;99141.78;;;14.50;91.41
71059;BME280;70265;47.576;19.270;2023-05-31T02:56:49;99143.44;;;14.51;91.38
71059;BME280;70265;47.576;19.270;2023-05-31T02:57:53;99137.81;;;14.54;90.04
71059;BME280;70265;47.576;19.270;2023-05-31T02:58:54;99149.00;;;14.56;90.49
71059;BME280;70265;47.576;19.270;2023-05-31T03:00:03;99149.50;;;14.60;91.06
71059;BME280;70265;47.576;19.270;2023-05-31T03:01:11;62501.59;;;-141.66;100.00
71059;BME280;70265;47.576;19.270;2023-05-31T03:02:15;62501.59;;;-141.66;100.00
71059;BME280;70265;47.576;19.270;2023-05-31T03:03:16;62501.59;;;-141.66;100.00
71059;BME280;70265;47.576;19.270;2023-05-31T03:04:20;62501.59;;;-141.66;100.00
71059;BME280;70265;47.576;19.270;2023-05-31T03:05:21;62501.59;;;-141.66;100.00
71059;BME280;70265;47.576;19.270;2023-05-31T03:06:26;62501.59;;;-141.66;100.00
71059;BME280;70265;47.576;19.270;2023-05-31T03:07:27;62501.59;;;-141.66;100.00
71059;BME280;70265;47.576;19.270;2023-05-31T03:08:31;99146.22;;;14.50;92.62
71059;BME280;70265;47.576;19.270;2023-05-31T03:09:32;99152.34;;;14.50;93.03
71059;BME280;70265;47.576;19.270;2023-05-31T03:10:36;99150.03;;;14.47;93.29
71059;BME280;70265;47.576;19.270;2023-05-31T03:11:37;99152.19;;;14.44;93.41
71059;BME280;70265;47.576;19.270;2023-05-31T03:12:41;99151.38;;;14.43;92.64
71059;BME280;70265;47.576;19.270;2023-05-31T03:13:42;99151.03;;;14.46;93.08
71059;BME280;70265;47.576;19.270;2023-05-31T03:14:46;99155.16;;;14.49;93.23
71059;BME280;70265;47.576;19.270;2023-05-31T03:15:50;99157.97;;;14.47;94.43
71059;BME280;70265;47.576;19.270;2023-05-31T03:16:54;99152.34;;;14.50;94.41
71059;BME280;70265;47.576;19.270;2023-05-31T03:17:56;99159.28;;;14.51;93.80
71059;BME280;70265;47.576;19.270;2023-05-31T03:18:59;99157.97;;;14.47;93.18
71059;BME280;70265;47.576;19.270;2023-05-31T03:20:00;99161.25;;;14.49;94.01
71059;BME280;70265;47.576;19.270;2023-05-31T03:21:04;99156.44;;;14.53;93.74
71059;BME280;70265;47.576;19.270;2023-05-31T03:22:05;99157.94;;;14.55;94.48
71059;BME280;70265;47.576;19.270;2023-05-31T03:23:09;99158.28;;;14.52;93.91
71059;BME280;70265;47.576;19.270;2023-05-31T03:24:10;99165.03;;;14.55;95.08
71059;BME280;70265;47.576;19.270;2023-05-31T03:25:15;99158.28;;;14.52;95.79
71059;BME280;70265;47.576;19.270;2023-05-31T03:26:16;99158.09;;;14.54;94.99
71059;BME280;70265;47.576;19.270;2023-05-31T03:27:20;99165.53;;;14.58;94.85
71059;BME280;70265;47.576;19.270;2023-05-31T03:28:21;99161.91;;;14.59;95.10
71059;BME280;70265;47.576;19.270;2023-05-31T03:29:25;99156.63;;;14.59;95.49
71059;BME280;70265;47.576;19.270;2023-05-31T03:30:26;99161.56;;;14.62;94.48
71059;BME280;70265;47.576;19.270;2023-05-31T03:31:33;99160.38;;;14.65;94.75
71059;BME280;70265;47.576;19.270;2023-05-31T03:32:34;99164.34;;;14.69;94.57
71059;BME280;70265;47.576;19.270;2023-05-31T03:33:37;99166.63;;;14.72;94.66
71059;BME280;70265;47.576;19.270;2023-05-31T03:34:38;99163.00;;;14.73;94.53
71059;BME280;70265;47.576;19.270;2023-05-31T03:35:42;99168.09;;;14.74;94.56
71059;BME280;70265;47.576;19.270;2023-05-31T03:36:43;99168.09;;;14.74;94.23
71059;BME280;70265;47.576;19.270;2023-05-31T03:37:47;99160.66;;;14.78;94.77
71059;BME280;70265;47.576;19.270;2023-05-31T03:38:48;99170.03;;;14.81;94.36
71059;BME280;70265;47.576;19.270;2023-05-31T03:39:52;99169.06;;;14.82;93.68
71059;BME280;70265;47.576;19.270;2023-05-31T03:40:53;99168.56;;;14.86;93.40
71059;BME280;70265;47.576;19.270;2023-05-31T03:41:56;99166.56;;;14.88;93.49
71059;BME280;70265;47.576;19.270;2023-05-31T03:42:57;99168.00;;;14.91;92.39
71059;BME280;70265;47.576;19.270;2023-05-31T03:44:01;99168.34;;;14.96;93.62
71059;BME280;70265;47.576;19.270;2023-05-31T03:45:05;99173.28;;;14.99;94.13
71059;BME280;70265;47.576;19.270;2023-05-31T03:46:10;99173.28;;;14.99;93.33
71059;BME280;70265;47.576;19.270;2023-05-31T03:47:13;99174.56;;;15.03;93.42
71059;BME280;70265;47.576;19.270;2023-05-31T03:48:18;99172.91;;;15.02;93.34
71059;BME280;70265;47.576;19.270;2023-05-31T03:49:19;99181.16;;;15.07;93.45
71059;BME280;70265;47.576;19.270;2023-05-31T03:50:23;99174.03;;;15.07;92.77
71059;BME280;70265;47.576;19.270;2023-05-31T03:51:24;99172.22;;;15.08;92.74
71059;BME280;70265;47.576;19.270;2023-05-31T03:52:28;99174.03;;;15.07;92.13
71059;BME280;70265;47.576;19.270;2023-05-31T03:53:31;99176.53;;;15.09;92.08
71059;BME280;70265;47.576;19.270;2023-05-31T03:54:33;99180.81;;;15.10;91.84
71059;BME280;70265;47.576;19.270;2023-05-31T03:55:36;99177.50;;;15.08;91.49
71059;BME280;70265;47.576;19.270;2023-05-31T03:56:38;99180.00;;;15.09;91.67
71059;BME280;70265;47.576;19.270;2023-05-31T03:57:41;99175.53;;;15.10;91.18
71059;BME280;70265;47.576;19.270;2023-05-31T03:58:45;99178.81;;;15.12;91.63
71059;BME280;70265;47.576;19.270;2023-05-31T03:59:46;99181.44;;;15.12;91.53
71059;BME280;70265;47.576;19.270;2023-05-31T04:00:50;99179.44;;;15.14;91.08
71059;BME280;70265;47.576;19.270;2023-05-31T04:01:51;99173.84;;;15.17;91.28
71059;BME280;70265;47.576;19.270;2023-05-31T04:02:58;99188.69;;;15.18;91.70
71059;BME280;70265;47.576;19.270;2023-05-31T04:03:59;99179.75;;;15.19;91.10
71059;BME280;70265;47.576;19.270;2023-05-31T04:05:04;99182.41;;;15.19;90.69
71059;BME280;70265;47.576;19.270;2023-05-31T04:06:06;99170.50;;;15.23;91.18
71059;BME280;70265;47.576;19.270;2023-05-31T04:07:10;99171.84;;;15.19;90.45
71059;BME280;70265;47.576;19.270;2023-05-31T04:08:11;99183.34;;;15.26;90.49
71059;BME280;70265;47.576;19.270;2023-05-31T04:09:21;99189.13;;;15.29;90.69
71059;BME280;70265;47.576;19.270;2023-05-31T04:10:26;99196.22;;;15.29;90.30
71059;BME280;70265;47.576;19.270;2023-05-31T04:11:27;99178.66;;;15.36;91.30
71059;BME280;70265;47.576;19.270;2023-05-31T04:12:31;99187.91;;;15.40;92.22
71059;BME280;70265;47.576;19.270;2023-05-31T04:13:32;99187.06;;;15.40;90.48
71059;BME280;70265;47.576;19.270;2023-05-31T04:14:36;99189.69;;;15.48;90.37
71059;BME280;70265;47.576;19.270;2023-05-31T04:15:37;99186.81;;;15.57;92.82
71059;BME280;70265;47.576;19.270;2023-05-31T04:16:41;99187.06;;;15.70;92.78
71059;BME280;70265;47.576;19.270;2023-05-31T04:17:42;99190.34;;;15.72;91.51
71059;BME280;70265;47.576;19.270;2023-05-31T04:18:49;99186.97;;;15.78;91.00
71059;BME280;70265;47.576;19.270;2023-05-31T04:19:50;99182.88;;;15.76;87.44
71059;BME280;70265;47.576;19.270;2023-05-31T04:20:55;99187.44;;;15.82;87.86
71059;BME280;70265;47.576;19.270;2023-05-31T04:21:56;99176.16;;;15.88;87.77
71059;BME280;70265;47.576;19.270;2023-05-31T04:22:59;99185.78;;;16.04;89.74
71059;BME280;70265;47.576;19.270;2023-05-31T04:24:01;99184.41;;;16.08;86.40
71059;BME280;70265;47.576;19.270;2023-05-31T04:25:06;99178.88;;;16.17;87.99
71059;BME280;70265;47.576;19.270;2023-05-31T04:26:08;99186.53;;;16.27;88.46
71059;BME280;70265;47.576;19.270;2023-05-31T04:27:16;99191.22;;;16.25;85.69
71059;BME280;70265;47.576;19.270;2023-05-31T04:28:19;99186.44;;;16.20;86.26
71059;BME280;70265;47.576;19.270;2023-05-31T04:29:22;99190.81;;;16.13;85.11
71059;BME280;70265;47.576;19.270;2023-05-31T04:30:26;99191.56;;;16.22;84.27
71059;BME280;70265;47.576;19.270;2023-05-31T04:31:30;99191.22;;;16.25;82.09
71059;BME280;70265;47.576;19.270;2023-05-31T04:32:33;99182.97;;;16.20;83.49
71059;BME280;70265;47.576;19.270;2023-05-31T04:33:37;99193.22;;;16.38;84.92
71059;BME280;70265;47.576;19.270;2023-05-31T04:34:41;99186.28;;;16.37;84.50
71059;BME280;70265;47.576;19.270;2023-05-31T04:35:45;99194.88;;;16.39;84.99
71059;BME280;70265;47.576;19.270;2023-05-31T04:36:46;99186.72;;;16.40;84.05
71059;BME280;70265;47.576;19.270;2023-05-31T04:37:50;99192.50;;;16.44;85.08
71059;BME280;70265;47.576;19.270;2023-05-31T04:38:53;99189.28;;;16.34;83.53
71059;BME280;70265;47.576;19.270;2023-05-31T04:39:58;99191.22;;;16.40;83.30
71059;BME280;70265;47.576;19.270;2023-05-31T04:40:59;99188.75;;;16.38;83.03
71059;BME280;70265;47.576;19.270;2023-05-31T04:42:04;99196.50;;;16.54;85.67
71059;BME280;70265;47.576;19.270;2023-05-31T04:43:12;99194.59;;;16.48;82.18
71059;BME280;70265;47.576;19.270;2023-05-31T04:44:13;99192.59;;;16.50;83.02
71059;BME280;70265;47.576;19.270;2023-05-31T04:45:16;99190.59;;;16.52;83.13
71059;BME280;70265;47.576;19.270;2023-05-31T04:46:18;99192.13;;;16.47;82.39
71059;BME280;70265;47.576;19.270;2023-05-31T04:47:23;99198.25;;;16.47;83.28
71059;BME280;70265;47.576;19.270;2023-05-31T04:48:24;99196.03;;;16.73;86.10
71059;BME280;70265;47.576;19.270;2023-05-31T04:49:28;99200.38;;;16.81;84.97
71059;BME280;70265;47.576;19.270;2023-05-31T04:50:32;99200.84;;;16.85;84.03
71059;BME280;70265;47.576;19.270;2023-05-31T04:51:35;99199.47;;;16.74;82.67
71059;BME280;70265;47.576;19.270;2023-05-31T04:52:37;99198.38;;;16.83;83.19
71059;BME280;70265;47.576;19.270;2023-05-31T04:53:40;99200.22;;;16.83;81.81
71059;BME280;70265;47.576;19.270;2023-05-31T04:54:41;99208.25;;;16.74;80.33
71059;BME280;70265;47.576;19.270;2023-05-31T04:55:45;99205.38;;;17.05;83.34
71059;BME280;70265;47.576;19.270;2023-05-31T04:56:49;99203.41;;;17.28;85.05
71059;BME280;70265;47.576;19.270;2023-05-31T04:57:50;99203.19;;;17.45;86.43
71059;BME280;70265;47.576;19.270;2023-05-31T04:58:54;99202.00;;;17.47;84.12
71059;BME280;70265;47.576;19.270;2023-05-31T04:59:56;99203.66;;;17.69;82.71
71059;BME280;70265;47.576;19.270;2023-05-31T05:01:00;99208.47;;;17.80;83.13
71059;BME280;70265;47.576;19.270;2023-05-31T05:02:01;99211.91;;;17.96;82.79
71059;BME280;70265;47.576;19.270;2023-05-31T05:03:04;99201.22;;;17.68;78.74
71059;BME280;70265;47.576;19.270;2023-05-31T05:04:06;99208.34;;;17.67;79.33
71059;BME280;70265;47.576;19.270;2023-05-31T05:05:09;99200.63;;;17.51;77.41
71059;BME280;70265;47.576;19.270;2023-05-31T05:06:16;99205.53;;;17.69;78.01
71059;BME280;70265;47.576;19.270;2023-05-31T05:07:20;99203.66;;;17.91;79.52
71059;BME280;70265;47.576;19.270;2023-05-31T05:08:21;99204.47;;;18.12;78.49
71059;BME280;70265;47.576;19.270;2023-05-31T05:09:25;99200.97;;;18.33;82.45
71059;BME280;70265;47.576;19.270;2023-05-31T05:10:29;99213.88;;;18.43;79.43
71059;BME280;70265;47.576;19.270;2023-05-31T05:11:30;99202.03;;;18.45;78.15
71059;BME280;70265;47.576;19.270;2023-05-31T05:12:34;99203.22;;;18.36;80.52
71059;BME280;70265;47.576;19.270;2023-05-31T05:13:35;99200.41;;;18.44;77.54
71059;BME280;70265;47.576;19.270;2023-05-31T05:14:39;99215.53;;;18.44;76.56
71059;BME280;70265;47.576;19.270;2023-05-31T05:15:41;99208.75;;;18.41;79.54
71059;BME280;70265;47.576;19.270;2023-05-31T05:16:45;99207.00;;;18.27;78.03
71059;BME280;70265;47.576;19.270;2023-05-31T05:17:46;99210.22;;;18.16;76.97
71059;BME280;70265;47.576;19.270;2023-05-31T05:18:49;99204.69;;;18.17;78.27
71059;BME280;70265;47.576;19.270;2023-05-31T05:19:50;99207.22;;;18.25;79.70
71059;BME280;70265;47.576;19.270;2023-05-31T05:20:56;99209.63;;;18.20;80.21
71059;BME280;70265;47.576;19.270;2023-05-31T05:22:00;99208.44;;;18.23;80.19
71059;BME280;70265;47.576;19.270;2023-05-31T05:23:04;99204.00;;;18.30;77.36
71059;BME280;70265;47.576;19.270;2023-05-31T05:24:07;99208.50;;;18.29;78.85
71059;BME280;70265;47.576;19.270;2023-05-31T05:25:11;99209.53;;;18.35;74.81
71059;BME280;70265;47.576;19.270;2023-05-31T05:26:14;99208.53;;;18.36;79.63
71059;BME280;70265;47.576;19.270;2023-05-31T05:27:18;99207.13;;;18.40;78.15
71059;BME280;70265;47.576;19.270;2023-05-31T05:28:22;99208.25;;;18.52;74.44
71059;BME280;70265;47.576;19.270;2023-05-31T05:29:25;99212.50;;;18.74;78.23
71059;BME280;70265;47.576;19.270;2023-05-31T05:30:27;99211.13;;;18.92;78.08
71059;BME280;70265;47.576;19.270;2023-05-31T05:31:31;99208.94;;;18.61;71.54
71059;BME280;70265;47.576;19.270;2023-05-31T05:32:32;99212.34;;;18.89;73.64